CheckWX is a tool to help pilots better visualize weather data.  It is not intended as a substitute for an official pre-flight weather briefing.

08:19:16 UTC

KONP TAF
Newport Municipal Airport
Newport, Oregon, USA
KONP 220546Z 2206/2306 00000KT 3SM BR FEW002 FM220900 15005KT P6SM BKN120 OVC200 FM221600 16007KT P6SM SCT040 OVC080 FM221800 19010KT P6SM FEW030 OVC060 FM222000 21015G25KT P6SM -RA BKN025 OVC050 FM230030 28010KT 6SM -RA BKN015 OVC040 FM230300 29007KT P6SM SCT025 BKN040

Feb-22@
06:00 UTC

Feb-22 @ 06:00 UTC

Feb-22@
09:00 UTC

Feb-22 @ 09:00 UTC

KONP 220546Z 2206/2306 00000KT 3SM BR FEW002
Conditions
Mist
Cloud Levels
  • Few at 200' AGL

Feb-22@
09:00 UTC

Feb-22 @ 09:00 UTC

Feb-22@
16:00 UTC

Feb-22 @ 16:00 UTC

FM220900 15005KT P6SM BKN120 OVC200

From

FromStandard forecast or significant change

Wind
  • 150° at 5 KTS
Cloud Levels
  • Broken at 12,000' AGL
  • Overcast at 20,000' AGL

Feb-22@
16:00 UTC

Feb-22 @ 16:00 UTC

Feb-22@
18:00 UTC

Feb-22 @ 18:00 UTC

FM221600 16007KT P6SM SCT040 OVC080

From

FromStandard forecast or significant change

Wind
  • 160° at 7 KTS
Cloud Levels
  • Scattered at 4,000' AGL
  • Overcast at 8,000' AGL

Feb-22@
18:00 UTC

Feb-22 @ 18:00 UTC

Feb-22@
20:00 UTC

Feb-22 @ 20:00 UTC

FM221800 19010KT P6SM FEW030 OVC060

From

FromStandard forecast or significant change

Wind
  • 190° at 10 KTS
Cloud Levels
  • Few at 3,000' AGL
  • Overcast at 6,000' AGL

Feb-22@
20:00 UTC

Feb-22 @ 20:00 UTC

Feb-23@
00:30 UTC

Feb-23 @ 00:30 UTC

FM222000 21015G25KT P6SM -RA BKN025 OVC050

From

FromStandard forecast or significant change

Wind
  • 210° at 15 KTS
  • {Gusting to 25 KTS
Conditions
Light Rain
Cloud Levels
  • Broken at 2,500' AGL
  • Overcast at 5,000' AGL

Feb-23@
00:30 UTC

Feb-23 @ 00:30 UTC

Feb-23@
03:00 UTC

Feb-23 @ 03:00 UTC

FM230030 28010KT 6SM -RA BKN015 OVC040

From

FromStandard forecast or significant change

Wind
  • 280° at 10 KTS
Conditions
Light Rain
Cloud Levels
  • Broken at 1,500' AGL
  • Overcast at 4,000' AGL

Feb-23@
03:00 UTC

Feb-23 @ 03:00 UTC

Feb-23@
06:00 UTC

Feb-23 @ 06:00 UTC

FM230300 29007KT P6SM SCT025 BKN040

From

FromStandard forecast or significant change

Wind
  • 290° at 7 KTS
Cloud Levels
  • Scattered at 2,500' AGL
  • Broken at 4,000' AGL